aviador You're here:

LDOS Decoded Metar

OSIJEK in CROATIA
Report Time2018-01-16 21:00:00
UTC Time2018-01-16 21:16:26
Flight Rules vfr VFR
Wind200° at 09 kt
W.Decomp.*RWY 11: 0.5 kt HW 9.0 kt RCW
W.Rank200° ranks 31
Current wind is above 200° avg. (5.6)
Visibility9999 m
Phenomena:N/A
Clouds:N/A
Expected CloudBase > 800 ft AGL from Temp-Dew spread
CeilingNone
Temp05°C (ISA -9)
Dew Point03°C (87% RH)
AAT0.3°C
QNH1002 hPa
Density Alt-364 ft
Elevation292 ft
Report Wrong Elevation
Raw Report
LDOS 162100Z 20009KT CAVOK 05/03 Q1002=

Extra information for LDOS:More info

Metar Taf Metar & Taf Last 4 Metars F.Rules Stats Wind Profile Meteogram Temp Stats Airport Information Weather charts Add Link Nearby VenuesMetar ALERT Operation Metar Decoded Social comments